Time;durP1;ratioP1;P1;durP2;ratioP2;P2;SDS_P1;SDS_P2;PMS_P1;PMS_P2;Temp;Humidity;BMP_temperature;BMP_pressure;BME280_temperature;BME280_humidity;BME280_pressure;Samples;Min_cycle;Max_cycle;Signal;HPM_P1;HPM_P2
2023/03/16 00:00:26;;;;;;;7.15;3.72;;;5.20;99.90;;;;;;5051554;28;20049;-60
2023/03/16 00:02:52;;;;;;;6.15;2.97;;;5.60;99.90;;;;;;5051545;28;20063;-60
2023/03/16 00:05:17;;;;;;;10.75;3.25;;;5.30;99.90;;;;;;5039803;28;20091;-60
2023/03/16 00:07:43;;;;;;;6.68;3.30;;;5.00;99.90;;;;;;5032352;28;20471;-60
2023/03/16 00:10:11;;;;;;;9.57;3.13;;;5.50;99.90;;;;;;5031291;28;20135;-60
2023/03/16 00:12:37;;;;;;;7.00;3.42;;;5.00;99.90;;;;;;5036545;28;20032;-60
2023/03/16 00:15:03;;;;;;;11.02;4.15;;;5.50;99.90;;;;;;5050008;28;20095;-60
2023/03/16 00:17:29;;;;;;;7.18;3.22;;;4.70;99.90;;;;;;5048860;28;20596;-60
2023/03/16 00:19:56;;;;;;;7.45;3.17;;;4.80;99.90;;;;;;5051119;28;20041;-59
2023/03/16 00:22:24;;;;;;;9.13;3.10;;;5.30;99.90;;;;;;5050951;28;20404;-59
2023/03/16 00:24:51;;;;;;;6.80;3.40;;;5.60;99.90;;;;;;5050965;28;20041;-59
2023/03/16 00:27:17;;;;;;;11.48;3.10;;;5.50;99.90;;;;;;5041715;28;20044;-60
2023/03/16 00:29:46;;;;;;;9.70;3.15;;;5.50;81.80;;;;;;5029942;28;20025;-59
2023/03/16 00:32:18;;;;;;;8.60;3.53;;;6.60;45.60;;;;;;5046530;28;20048;-59
2023/03/16 00:34:45;;;;;;;6.18;3.33;;;5.50;10.20;;;;;;5050578;28;20128;-59
2023/03/16 00:37:14;;;;;;;7.95;2.95;;;5.60;1.00;;;;;;5038514;28;20049;-59
2023/03/16 00:39:43;;;;;;;8.63;2.95;;;4.90;1.00;;;;;;5038583;28;20034;-59
2023/03/16 00:42:11;;;;;;;4.63;2.58;;;4.90;1.00;;;;;;5030856;28;20048;-60
2023/03/16 00:44:37;;;;;;;8.43;3.45;;;5.70;1.00;;;;;;5030843;28;20029;-59
2023/03/16 00:47:05;;;;;;;6.30;3.47;;;4.80;99.90;;;;;;5033849;28;20045;-59
2023/03/16 00:49:33;;;;;;;6.97;3.30;;;5.50;99.90;;;;;;5038385;28;20041;-59
2023/03/16 00:52:00;;;;;;;8.98;4.00;;;5.20;99.90;;;;;;5038627;28;20131;-59
2023/03/16 00:54:26;;;;;;;6.45;3.30;;;4.80;99.90;;;;;;5033798;28;20071;-59
2023/03/16 00:56:52;;;;;;;7.00;3.53;;;5.10;99.90;;;;;;5045062;28;20064;-59
2023/03/16 00:59:19;;;;;;;4.70;2.72;;;5.50;99.90;;;;;;5045119;28;20080;-59
2023/03/16 01:01:45;;;;;;;4.57;2.80;;;5.60;99.90;;;;;;5050329;28;20124;-60
2023/03/16 01:04:12;;;;;;;5.43;2.65;;;5.20;99.90;;;;;;5047352;28;20120;-60
2023/03/16 01:06:38;;;;;;;6.78;3.40;;;5.40;99.90;;;;;;5049363;28;20052;-59
2023/03/16 01:09:04;;;;;;;5.55;3.47;;;5.30;99.90;;;;;;5050543;28;20041;-59
2023/03/16 01:11:32;;;;;;;6.70;3.10;;;5.10;99.90;;;;;;5041593;28;20422;-60
2023/03/16 01:13:59;;;;;;;5.97;3.78;;;5.20;83.40;;;;;;5050706;28;20036;-60
2023/03/16 01:16:24;;;;;;;7.78;3.40;;;5.50;49.40;;;;;;5047104;28;20132;-59
2023/03/16 01:18:55;;;;;;;8.88;3.30;;;4.90;5.40;;;;;;5049383;28;20480;-59
2023/03/16 01:21:21;;;;;;;9.05;3.42;;;4.90;1.00;;;;;;5050590;28;20072;-59
2023/03/16 01:23:47;;;;;;;7.55;3.70;;;5.50;1.00;;;;;;5050546;28;20060;-59
2023/03/16 01:26:15;;;;;;;4.55;2.75;;;4.80;1.00;;;;;;5049512;28;20044;-59
2023/03/16 01:28:40;;;;;;;7.25;2.85;;;5.50;1.00;;;;;;5040418;28;20041;-59
2023/03/16 01:31:09;;;;;;;6.65;3.10;;;4.90;1.00;;;;;;5040793;28;20029;-59
2023/03/16 01:33:35;;;;;;;3.95;2.92;;;5.00;1.00;;;;;;5049593;28;20547;-59
2023/03/16 01:36:11;;;;;;;8.82;3.60;;;5.00;1.00;;;;;;5041900;28;20132;-59
2023/03/16 01:38:37;;;;;;;6.43;3.65;;;5.50;99.90;;;;;;5051039;28;20044;-59
2023/03/16 01:41:03;;;;;;;4.22;2.65;;;5.00;99.90;;;;;;5045035;28;20091;-59
2023/03/16 01:43:31;;;;;;;6.45;3.55;;;5.40;99.90;;;;;;5050915;28;20442;-59
2023/03/16 01:46:05;;;;;;;5.53;3.53;;;5.70;99.90;;;;;;5052432;28;20426;-59
2023/03/16 01:48:55;;;;;;;6.03;3.30;;;5.60;99.90;;;;;;5039419;28;20567;-59
2023/03/16 01:51:44;;;;;;;5.72;3.80;;;5.40;99.90;;;;;;5046047;28;20410;-59
2023/03/16 01:54:54;;;;;;;6.30;3.08;;;5.50;99.90;;;;;;5053207;28;20080;-60
2023/03/16 01:57:29;;;;;;;6.20;2.97;;;5.10;99.90;;;;;;5032173;28;20068;-59
2023/03/16 02:00:22;;;;;;;10.20;4.22;;;5.60;99.90;;;;;;5041790;28;20037;-59
2023/03/16 02:02:53;;;;;;;6.50;3.28;;;5.80;99.90;;;;;;5033927;28;20510;-59
2023/03/16 02:05:24;;;;;;;6.43;3.13;;;5.20;99.90;;;;;;5033727;28;20117;-59
2023/03/16 02:07:57;;;;;;;8.52;3.20;;;5.30;99.00;;;;;;5035517;28;20091;-60
2023/03/16 02:10:23;;;;;;;6.30;3.03;;;5.60;91.00;;;;;;5033873;28;20108;-59
2023/03/16 02:12:49;;;;;;;6.88;3.53;;;5.80;73.00;;;;;;5047116;28;20037;-59
2023/03/16 02:15:15;;;;;;;7.40;4.13;;;5.30;57.20;;;;;;5053722;28;20514;-60
2023/03/16 02:17:42;;;;;;;8.65;3.78;;;5.80;35.70;;;;;;5035732;28;20191;-59
2023/03/16 02:20:36;;;;;;;7.30;3.63;;;5.70;24.90;;;;;;5033648;28;20044;-59
2023/03/16 02:23:07;;;;;;;5.30;3.13;;;5.70;19.80;;;;;;5041099;28;20499;-59
2023/03/16 02:25:41;;;;;;;6.28;2.83;;;5.20;22.80;;;;;;5036002;28;20044;-59
2023/03/16 02:28:32;;;;;;;6.35;3.00;;;5.30;38.00;;;;;;5053249;28;20037;-59
2023/03/16 02:30:58;;;;;;;6.80;3.35;;;5.70;44.30;;;;;;5048474;28;20088;-59
2023/03/16 02:33:25;;;;;;;8.23;3.92;;;5.70;58.50;;;;;;5044421;28;20132;-60
2023/03/16 02:35:50;;;;;;;4.50;2.95;;;5.80;64.50;;;;;;5036707;28;20059;-59
2023/03/16 02:38:16;;;;;;;5.40;2.88;;;5.30;60.70;;;;;;5039769;28;20168;-59
2023/03/16 02:40:42;;;;;;;6.25;3.47;;;5.60;48.60;;;;;;5053121;28;20037;-60
2023/03/16 02:43:16;;;;;;;7.55;3.72;;;5.90;33.40;;;;;;5053201;28;20549;-59
2023/03/16 02:45:51;;;;;;;11.55;4.22;;;5.70;22.60;;;;;;5045090;28;20060;-60
2023/03/16 02:48:49;;;;;;;9.10;3.70;;;5.90;8.50;;;;;;5037963;28;20045;-59
2023/03/16 02:51:15;;;;;;;6.07;3.40;;;5.50;1.00;;;;;;5033420;28;20038;-60
2023/03/16 02:53:41;;;;;;;14.50;3.03;;;5.30;1.00;;;;;;5033140;28;20180;-59
2023/03/16 02:56:06;;;;;;;6.10;3.65;;;5.70;1.00;;;;;;5031791;28;20044;-60
2023/03/16 02:58:32;;;;;;;4.25;2.80;;;5.80;1.00;;;;;;5032798;28;20037;-60
2023/03/16 03:00:58;;;;;;;9.40;3.92;;;5.70;1.00;;;;;;5045125;28;20033;-59
2023/03/16 03:03:24;;;;;;;8.57;3.95;;;5.40;1.00;;;;;;5053471;28;20045;-59
2023/03/16 03:05:49;;;;;;;8.02;3.97;;;5.60;1.00;;;;;;5046812;28;20098;-59
2023/03/16 03:08:15;;;;;;;5.47;4.07;;;6.00;1.00;;;;;;5033019;28;20044;-59
2023/03/16 03:10:41;;;;;;;11.15;4.10;;;5.40;1.00;;;;;;5032733;28;20415;-59
2023/03/16 03:13:06;;;;;;;6.88;3.80;;;5.30;2.60;;;;;;5038900;28;20499;-60
2023/03/16 03:15:33;;;;;;;8.38;4.75;;;5.90;16.70;;;;;;5033628;28;20049;-59
2023/03/16 03:17:59;;;;;;;9.27;4.70;;;5.30;39.50;;;;;;5033365;28;20099;-59
2023/03/16 03:20:24;;;;;;;5.95;3.90;;;5.40;59.40;;;;;;5034386;28;20407;-60
2023/03/16 03:22:51;;;;;;;7.35;4.57;;;5.80;74.40;;;;;;5040620;28;20052;-60
2023/03/16 03:25:17;;;;;;;7.45;4.05;;;5.80;99.90;;;;;;5034543;28;20054;-59
2023/03/16 03:27:44;;;;;;;6.03;3.40;;;5.30;99.90;;;;;;5031910;28;20045;-59
2023/03/16 03:30:13;;;;;;;7.63;3.90;;;6.00;99.90;;;;;;5032222;28;20030;-59
2023/03/16 03:32:39;;;;;;;6.72;4.05;;;6.00;99.90;;;;;;5032119;28;20037;-59
2023/03/16 03:35:06;;;;;;;10.55;4.82;;;5.40;99.90;;;;;;5034479;28;20044;-60
2023/03/16 03:37:32;;;;;;;5.88;3.58;;;5.40;99.90;;;;;;5044620;28;20044;-59
2023/03/16 03:39:57;;;;;;;5.70;3.88;;;6.00;99.90;;;;;;5032274;28;20107;-59
2023/03/16 03:42:23;;;;;;;5.03;3.33;;;5.30;99.90;;;;;;5049559;28;20052;-59
2023/03/16 03:44:52;;;;;;;6.07;4.20;;;6.00;1.00;;;;;;5039421;28;20047;-60
2023/03/16 03:47:18;;;;;;;6.28;4.57;;;6.10;1.00;;;;;;5031681;28;20091;-60
2023/03/16 03:49:44;;;;;;;9.30;4.95;;;5.70;1.00;;;;;;5031298;28;20038;-59
2023/03/16 03:52:10;;;;;;;7.22;4.68;;;5.40;1.00;;;;;;5044423;28;20380;-59
2023/03/16 03:54:36;;;;;;;6.32;4.00;;;5.90;1.00;;;;;;5047826;28;20036;-59
2023/03/16 03:57:02;;;;;;;7.18;4.00;;;6.10;18.90;;;;;;5031669;28;20513;-59
2023/03/16 03:59:27;;;;;;;8.65;4.35;;;5.40;92.20;;;;;;5031486;28;20046;-59
2023/03/16 04:01:53;;;;;;;7.97;4.00;;;5.90;99.90;;;;;;5031723;28;20129;-60
2023/03/16 04:04:19;;;;;;;6.63;4.60;;;5.50;99.90;;;;;;5031317;28;20041;-60
2023/03/16 04:06:45;;;;;;;6.80;4.40;;;5.60;99.90;;;;;;5038390;28;20120;-60
2023/03/16 04:09:10;;;;;;;7.78;4.05;;;5.50;99.90;;;;;;5050629;28;20112;-60
2023/03/16 04:11:36;;;;;;;7.78;4.32;;;5.90;1.00;;;;;;5041174;28;20049;-59
2023/03/16 04:14:02;;;;;;;9.10;5.22;;;5.40;1.00;;;;;;5031061;28;20591;-60
2023/03/16 04:16:28;;;;;;;9.15;4.93;;;5.10;43.10;;;;;;5031384;28;20045;-60
2023/03/16 04:18:54;;;;;;;8.27;5.07;;;6.00;99.90;;;;;;5029944;28;20038;-60
2023/03/16 04:21:21;;;;;;;10.70;4.82;;;5.40;99.90;;;;;;5042066;28;20059;-60
2023/03/16 04:23:48;;;;;;;8.23;4.50;;;5.10;1.00;;;;;;5045033;28;20084;-60
2023/03/16 04:26:14;;;;;;;5.75;4.47;;;5.00;22.90;;;;;;5040831;28;20119;-60
2023/03/16 04:28:42;;;;;;;6.20;4.13;;;5.30;99.90;;;;;;5049626;28;20430;-59
2023/03/16 04:31:09;;;;;;;7.25;5.15;;;5.20;1.00;;;;;;5050950;28;20059;-60
2023/03/16 04:33:36;;;;;;;7.75;4.72;;;6.10;57.70;;;;;;5050915;28;20037;-60
2023/03/16 04:36:02;;;;;;;6.25;3.90;;;5.10;99.90;;;;;;5036804;28;20045;-60
2023/03/16 04:38:29;;;;;;;8.85;4.95;;;5.20;1.00;;;;;;5037806;28;20047;-61
2023/03/16 04:40:55;;;;;;;8.50;5.13;;;6.00;99.90;;;;;;5031240;28;20487;-60
2023/03/16 04:43:21;;;;;;;10.10;4.97;;;5.90;99.90;;;;;;5031015;28;20045;-60
2023/03/16 04:45:47;;;;;;;8.50;5.55;;;6.30;13.20;;;;;;5043428;28;20518;-60
2023/03/16 04:48:13;;;;;;;7.13;4.97;;;5.20;99.90;;;;;;5050703;28;20075;-60
2023/03/16 04:50:39;;;;;;;9.50;5.80;;;6.20;1.00;;;;;;5051114;28;20037;-60
2023/03/16 04:53:04;;;;;;;10.48;5.32;;;6.30;53.80;;;;;;5036839;28;20041;-60
2023/03/16 04:55:30;;;;;;;7.85;4.93;;;5.20;99.90;;;;;;5031442;28;20202;-60
2023/03/16 04:57:56;;;;;;;10.35;5.63;;;5.60;55.30;;;;;;5039065;28;20143;-60
2023/03/16 05:00:22;;;;;;;10.90;5.53;;;5.50;99.90;;;;;;5040218;28;20073;-60
2023/03/16 05:02:50;;;;;;;12.32;5.40;;;5.50;86.40;;;;;;5049598;28;20047;-60
2023/03/16 05:05:16;;;;;;;13.48;5.28;;;6.50;99.90;;;;;;5041236;28;20049;-60
2023/03/16 05:07:43;;;;;;;9.10;5.55;;;5.40;1.00;;;;;;5030689;28;20068;-60
2023/03/16 05:10:11;;;;;;;8.32;5.63;;;5.80;51.00;;;;;;5048162;28;20060;-60
2023/03/16 05:12:37;;;;;;;7.85;5.15;;;6.60;99.90;;;;;;5050645;28;20120;-60
2023/03/16 05:15:04;;;;;;;9.05;5.50;;;5.60;99.90;;;;;;5044948;28;20467;-60
2023/03/16 05:17:29;;;;;;;10.57;5.57;;;5.70;99.90;;;;;;5031014;28;20056;-60
2023/03/16 05:19:55;;;;;;;6.93;4.63;;;5.70;99.90;;;;;;5030385;28;20403;-60
2023/03/16 05:22:20;;;;;;;14.23;7.05;;;5.90;99.90;;;;;;5030432;28;20061;-60
2023/03/16 05:24:46;;;;;;;8.07;5.03;;;6.60;99.90;;;;;;5038044;28;20034;-60
2023/03/16 05:27:11;;;;;;;6.40;4.25;;;5.70;99.90;;;;;;5030567;28;20053;-60
2023/03/16 05:29:37;;;;;;;9.82;6.15;;;6.30;99.90;;;;;;5029704;28;20402;-60
2023/03/16 05:32:03;;;;;;;8.80;4.97;;;6.00;99.90;;;;;;5031006;28;20052;-60
2023/03/16 05:34:28;;;;;;;7.75;5.00;;;6.60;99.90;;;;;;5035248;28;20037;-59
2023/03/16 05:36:54;;;;;;;5.93;4.88;;;6.40;99.90;;;;;;5046959;28;20045;-60
2023/03/16 05:39:19;;;;;;;7.95;4.75;;;6.70;99.90;;;;;;5041472;28;20045;-59
2023/03/16 05:41:45;;;;;;;8.43;4.97;;;5.50;99.90;;;;;;5044578;28;20423;-60
2023/03/16 05:44:11;;;;;;;7.97;5.47;;;6.50;99.90;;;;;;5031245;28;20057;-60
2023/03/16 05:46:36;;;;;;;6.65;4.60;;;6.50;99.90;;;;;;5033284;28;20130;-59
2023/03/16 05:49:02;;;;;;;8.07;4.80;;;6.50;99.90;;;;;;5029836;28;20056;-60
2023/03/16 05:51:27;;;;;;;9.45;5.25;;;5.70;99.90;;;;;;5030461;28;20121;-60
2023/03/16 05:53:57;;;;;;;7.53;5.00;;;6.50;99.90;;;;;;5031360;28;20483;-60
2023/03/16 05:56:25;;;;;;;6.88;4.38;;;5.60;99.90;;;;;;5041390;28;20041;-61
2023/03/16 05:58:52;;;;;;;7.82;5.32;;;5.50;99.90;;;;;;5044854;28;20036;-60
2023/03/16 06:01:19;;;;;;;8.00;4.43;;;6.40;99.90;;;;;;5049568;28;20040;-60
2023/03/16 06:03:45;;;;;;;11.55;5.97;;;6.70;99.90;;;;;;5034911;28;20561;-59
2023/03/16 06:06:11;;;;;;;6.50;4.53;;;6.70;99.90;;;;;;5029210;28;20488;-60
2023/03/16 06:08:37;;;;;;;7.65;4.72;;;6.20;99.90;;;;;;5045303;28;20044;-60
2023/03/16 06:11:03;;;;;;;9.90;6.18;;;5.70;99.90;;;;;;5039488;28;20108;-60
2023/03/16 06:13:28;;;;;;;11.25;6.70;;;6.60;99.90;;;;;;5042579;28;20127;-60
2023/03/16 06:15:54;;;;;;;9.23;5.85;;;6.20;99.90;;;;;;5033463;28;20052;-60
2023/03/16 06:18:20;;;;;;;9.88;5.88;;;6.50;99.90;;;;;;5034954;28;20041;-60
2023/03/16 06:20:46;;;;;;;12.98;6.70;;;6.00;99.90;;;;;;5043604;28;20136;-60
2023/03/16 06:23:12;;;;;;;11.73;6.15;;;5.40;99.90;;;;;;5033412;28;20537;-60
2023/03/16 06:25:38;;;;;;;10.13;5.57;;;6.70;99.90;;;;;;5040723;28;20037;-60
2023/03/16 06:28:04;;;;;;;7.55;5.60;;;4.60;99.90;;;;;;5038188;28;20045;-60
2023/03/16 06:30:30;;;;;;;10.23;5.90;;;5.90;99.90;;;;;;5033136;28;20703;-60
2023/03/16 06:32:55;;;;;;;8.52;5.25;;;6.70;99.90;;;;;;5046228;28;20106;-60
2023/03/16 06:35:21;;;;;;;10.20;6.07;;;5.80;99.90;;;;;;5045202;28;20415;-60
2023/03/16 06:37:47;;;;;;;10.30;6.15;;;5.40;99.90;;;;;;5050659;28;20078;-60
2023/03/16 06:40:13;;;;;;;9.82;5.43;;;5.50;99.90;;;;;;5044259;28;20052;-60
2023/03/16 06:42:39;;;;;;;8.95;5.32;;;6.30;99.90;;;;;;5055360;28;20375;-60
2023/03/16 06:45:05;;;;;;;10.00;5.45;;;5.40;99.90;;;;;;5041363;28;20037;-60
2023/03/16 06:47:31;;;;;;;10.55;5.40;;;5.40;99.90;;;;;;5037246;28;20033;-60
2023/03/16 06:49:56;;;;;;;9.25;5.15;;;6.90;99.90;;;;;;5040500;28;20042;-60
2023/03/16 06:52:22;;;;;;;7.22;4.30;;;6.90;99.90;;;;;;5042915;28;20395;-60
2023/03/16 06:54:48;;;;;;;8.50;4.72;;;6.80;99.90;;;;;;5051465;28;20041;-60
2023/03/16 06:57:13;;;;;;;8.00;4.85;;;5.60;99.90;;;;;;5050975;28;20038;-60
2023/03/16 06:59:39;;;;;;;11.70;5.60;;;6.20;99.90;;;;;;5036202;28;20037;-60
2023/03/16 07:02:05;;;;;;;12.27;5.65;;;6.30;99.90;;;;;;5046393;28;20038;-60
2023/03/16 07:04:31;;;;;;;9.25;4.57;;;6.60;99.90;;;;;;5048879;28;20091;-60
2023/03/16 07:06:57;;;;;;;11.20;5.40;;;5.50;99.90;;;;;;5051050;28;20637;-60
2023/03/16 07:09:22;;;;;;;6.97;4.47;;;6.60;99.90;;;;;;5047375;28;20089;-60
2023/03/16 07:11:48;;;;;;;9.88;5.20;;;6.80;99.90;;;;;;5062554;28;20483;-59
2023/03/16 07:14:14;;;;;;;8.02;5.28;;;8.50;99.90;;;;;;5046199;28;20071;-59
2023/03/16 07:16:39;;;;;;;8.82;6.18;;;5.40;99.90;;;;;;5047921;28;20506;-60
2023/03/16 07:19:05;;;;;;;10.73;5.32;;;5.60;99.90;;;;;;5044973;28;20033;-60
2023/03/16 07:21:37;;;;;;;7.63;4.25;;;6.60;99.90;;;;;;5033385;28;20056;-59
2023/03/16 07:24:04;;;;;;;7.45;4.30;;;6.40;99.90;;;;;;5031333;28;20045;-59
2023/03/16 07:26:31;;;;;;;7.30;4.50;;;5.40;99.90;;;;;;5039071;28;20094;-60
2023/03/16 07:28:56;;;;;;;5.63;4.03;;;6.60;99.90;;;;;;5046115;28;20040;-59
2023/03/16 07:31:22;;;;;;;8.13;4.78;;;6.00;99.90;;;;;;5042874;28;20033;-62
2023/03/16 07:33:47;;;;;;;6.95;4.50;;;6.30;99.90;;;;;;5036242;28;20120;-59
2023/03/16 07:36:13;;;;;;;11.95;4.40;;;6.60;99.90;;;;;;5048241;28;20053;-59
2023/03/16 07:38:38;;;;;;;7.88;4.35;;;6.30;99.90;;;;;;5040967;28;20029;-59
2023/03/16 07:41:04;;;;;;;8.25;4.93;;;6.60;99.90;;;;;;5044897;28;20048;-60
2023/03/16 07:43:30;;;;;;;7.75;4.45;;;6.70;99.90;;;;;;5039157;28;20052;-60
2023/03/16 07:45:55;;;;;;;5.90;4.22;;;6.40;99.90;;;;;;5042022;28;20037;-60
2023/03/16 07:48:21;;;;;;;7.53;5.40;;;5.30;99.90;;;;;;5035745;28;20076;-59
2023/03/16 07:50:47;;;;;;;6.65;4.93;;;5.90;99.90;;;;;;5040148;28;20407;-60
2023/03/16 07:53:14;;;;;;;7.43;4.13;;;5.20;99.90;;;;;;5032229;28;20029;-59
2023/03/16 07:55:41;;;;;;;12.65;5.18;;;5.40;99.90;;;;;;5035225;28;20457;-59
2023/03/16 07:58:09;;;;;;;7.70;4.43;;;6.70;99.90;;;;;;5037519;28;20436;-60
2023/03/16 08:00:35;;;;;;;7.72;4.65;;;6.50;99.90;;;;;;5041865;28;20517;-59
2023/03/16 08:03:01;;;;;;;7.10;4.45;;;5.20;99.90;;;;;;5036229;28;20037;-60
2023/03/16 08:05:27;;;;;;;8.65;4.57;;;6.00;99.90;;;;;;5057979;28;20053;-60
2023/03/16 08:07:54;;;;;;;7.47;4.28;;;5.30;99.90;;;;;;5040685;28;20053;-60
2023/03/16 08:10:20;;;;;;;10.63;4.65;;;5.20;99.90;;;;;;5040747;28;20131;-60
2023/03/16 08:12:46;;;;;;;8.65;4.28;;;5.30;99.90;;;;;;5049145;28;20439;-60
2023/03/16 08:15:12;;;;;;;9.13;5.13;;;7.00;99.90;;;;;;5046612;28;20114;-60
2023/03/16 08:17:40;;;;;;;8.15;5.68;;;5.70;99.90;;;;;;5048433;28;20414;-60
2023/03/16 08:20:11;;;;;;;6.55;4.03;;;5.20;99.90;;;;;;5033013;28;20041;-60
2023/03/16 08:22:36;;;;;;;12.25;4.97;;;5.30;99.90;;;;;;5032140;28;20068;-60
2023/03/16 08:25:04;;;;;;;6.53;4.18;;;5.50;99.90;;;;;;5040111;28;20487;-60
2023/03/16 08:27:30;;;;;;;6.85;4.30;;;5.50;99.90;;;;;;5042583;28;20406;-60
2023/03/16 08:29:56;;;;;;;9.50;4.35;;;6.90;99.90;;;;;;5037013;28;20049;-60
2023/03/16 08:32:21;;;;;;;8.50;4.28;;;5.60;99.90;;;;;;5043160;28;20030;-60
2023/03/16 08:34:47;;;;;;;10.32;5.10;;;5.80;99.90;;;;;;5036383;28;20040;-60
2023/03/16 08:37:13;;;;;;;10.07;4.07;;;5.50;99.90;;;;;;5044473;28;20048;-61
2023/03/16 08:39:40;;;;;;;7.93;4.40;;;7.40;99.90;;;;;;5040651;28;20072;-61
2023/03/16 08:42:07;;;;;;;6.85;4.28;;;7.30;99.90;;;;;;5039967;28;20039;-61
2023/03/16 08:44:32;;;;;;;5.47;3.40;;;5.50;99.90;;;;;;5044284;28;20088;-61
2023/03/16 08:46:58;;;;;;;9.88;4.45;;;6.20;99.90;;;;;;5045726;28;20041;-60
2023/03/16 08:49:26;;;;;;;9.65;4.35;;;7.60;99.90;;;;;;5046735;28;20112;-61
2023/03/16 08:51:53;;;;;;;6.90;4.22;;;7.00;99.90;;;;;;5043581;28;20479;-60
2023/03/16 08:54:18;;;;;;;7.18;4.40;;;6.90;99.90;;;;;;5038680;28;20051;-62
2023/03/16 08:56:44;;;;;;;8.05;4.55;;;7.30;99.90;;;;;;5034576;28;20041;-61
2023/03/16 08:59:09;;;;;;;9.07;5.18;;;5.60;99.90;;;;;;5044585;28;20037;-61
2023/03/16 09:01:35;;;;;;;6.47;4.95;;;5.70;99.90;;;;;;5037242;28;20128;-61
2023/03/16 09:04:02;;;;;;;9.35;4.30;;;6.30;99.90;;;;;;5044764;28;20069;-61
2023/03/16 09:06:27;;;;;;;7.93;4.82;;;7.30;99.90;;;;;;5043673;28;20040;-60
2023/03/16 09:08:54;;;;;;;5.70;3.75;;;5.70;99.90;;;;;;5040145;28;20777;-60
2023/03/16 09:11:21;;;;;;;7.57;4.35;;;5.80;99.90;;;;;;5037780;28;20048;-60
2023/03/16 09:13:47;;;;;;;5.28;3.58;;;5.80;99.90;;;;;;5044183;28;20025;-60
2023/03/16 09:16:14;;;;;;;6.00;3.63;;;5.90;99.90;;;;;;5040258;28;20414;-60
2023/03/16 09:18:41;;;;;;;5.07;3.45;;;7.30;99.90;;;;;;5042814;28;20048;-63
2023/03/16 09:21:11;;;;;;;8.43;3.83;;;6.60;99.90;;;;;;5037195;28;20506;-63
2023/03/16 09:23:38;;;;;;;7.70;4.90;;;6.80;99.90;;;;;;5036608;28;20120;-63
2023/03/16 09:26:06;;;;;;;7.53;3.85;;;5.80;99.90;;;;;;5042365;28;20061;-63
2023/03/16 09:28:33;;;;;;;6.57;4.30;;;7.60;99.90;;;;;;5048428;28;20074;-63
2023/03/16 09:31:00;;;;;;;9.25;4.45;;;7.00;99.90;;;;;;5036951;28;20025;-62
2023/03/16 09:33:30;;;;;;;5.85;3.70;;;6.00;99.90;;;;;;5042123;28;20187;-63
2023/03/16 09:35:57;;;;;;;15.13;4.53;;;7.30;99.90;;;;;;5032743;28;20038;-63
2023/03/16 09:38:26;;;;;;;9.77;4.47;;;7.90;99.90;;;;;;5047729;28;20049;-63
2023/03/16 09:41:05;;;;;;;3.88;3.20;;;7.80;99.90;;;;;;5047341;28;20045;-63
2023/03/16 09:43:37;;;;;;;10.23;4.03;;;7.00;99.90;;;;;;5043040;28;20052;-63
2023/03/16 09:46:23;;;;;;;9.07;4.15;;;7.90;99.90;;;;;;5039610;28;20049;-63
2023/03/16 09:48:48;;;;;;;6.83;3.70;;;5.70;99.90;;;;;;5046421;28;20076;-63
2023/03/16 09:51:42;;;;;;;5.32;3.88;;;7.90;99.90;;;;;;5041735;28;20096;-63
2023/03/16 09:54:38;;;;;;;8.25;4.20;;;6.70;99.90;;;;;;5053237;28;20040;-63
2023/03/16 09:57:10;;;;;;;11.38;4.10;;;7.30;99.90;;;;;;5049001;28;20037;-63
2023/03/16 09:59:35;;;;;;;7.93;3.47;;;7.20;99.90;;;;;;5047639;28;20067;-63
2023/03/16 10:02:47;;;;;;;7.72;4.35;;;7.80;99.90;;;;;;5045954;28;20048;-63
2023/03/16 10:05:15;;;;;;;5.00;3.50;;;8.00;99.90;;;;;;5046138;28;20426;-63
2023/03/16 10:08:06;;;;;;;10.98;4.15;;;8.10;99.90;;;;;;5050190;28;20075;-63
2023/03/16 10:10:45;;;;;;;7.40;4.00;;;8.20;99.90;;;;;;5047976;28;20037;-63
2023/03/16 10:13:43;;;;;;;8.52;4.30;;;8.00;99.90;;;;;;5037141;28;20095;-63
2023/03/16 10:16:24;;;;;;;9.38;4.40;;;6.10;99.90;;;;;;5037447;28;20044;-63
2023/03/16 10:18:59;;;;;;;7.55;3.78;;;6.80;99.90;;;;;;5037465;28;20503;-63
2023/03/16 10:21:25;;;;;;;7.47;4.28;;;8.40;99.90;;;;;;5049270;28;20146;-63
2023/03/16 10:23:53;;;;;;;8.55;4.60;;;6.30;99.90;;;;;;5046528;28;20045;-63
2023/03/16 10:26:32;;;;;;;6.20;3.42;;;7.00;99.90;;;;;;5043479;28;20614;-63
2023/03/16 10:28:59;;;;;;;7.32;3.90;;;7.90;99.90;;;;;;5036067;28;20065;-63
2023/03/16 10:31:27;;;;;;;9.70;4.30;;;7.10;99.90;;;;;;5040645;28;20064;-63
2023/03/16 10:34:01;;;;;;;9.00;4.18;;;6.80;99.90;;;;;;5047354;28;20041;-63
2023/03/16 10:36:33;;;;;;;7.03;4.40;;;8.50;99.90;;;;;;5032646;28;20045;-63
2023/03/16 10:39:07;;;;;;;6.53;3.80;;;8.70;99.90;;;;;;5044127;28;20445;-63
2023/03/16 10:41:42;;;;;;;10.63;4.30;;;8.70;99.90;;;;;;5039079;28;20045;-63
2023/03/16 10:44:15;;;;;;;8.13;3.85;;;7.20;99.90;;;;;;5042083;28;20087;-63
2023/03/16 10:46:47;;;;;;;7.03;4.50;;;7.60;99.90;;;;;;5042435;28;20072;-63
2023/03/16 10:49:26;;;;;;;6.18;4.53;;;6.90;99.90;;;;;;5041136;28;20414;-63
2023/03/16 10:51:56;;;;;;;6.10;4.45;;;7.30;99.90;;;;;;5039234;28;20091;-63
2023/03/16 10:54:35;;;;;;;5.45;3.67;;;7.40;99.90;;;;;;5044512;28;20121;-63
2023/03/16 10:57:24;;;;;;;5.60;3.90;;;7.10;99.90;;;;;;5037188;28;20068;-63
2023/03/16 10:59:51;;;;;;;6.80;4.15;;;8.80;99.90;;;;;;5032798;28;20087;-63
2023/03/16 11:02:21;;;;;;;5.90;3.58;;;7.20;99.90;;;;;;5033194;28;20057;-63
2023/03/16 11:04:48;;;;;;;7.28;4.30;;;9.00;99.90;;;;;;5037887;28;20047;-63
2023/03/16 11:07:18;;;;;;;6.95;3.67;;;9.60;99.90;;;;;;5043012;28;20175;-63
2023/03/16 11:09:46;;;;;;;6.00;3.60;;;9.40;99.90;;;;;;5048978;28;20080;-63
2023/03/16 11:12:23;;;;;;;11.80;4.20;;;9.50;99.90;;;;;;5052002;28;20041;-63
2023/03/16 11:14:49;;;;;;;11.43;4.90;;;8.30;99.90;;;;;;5036706;28;20052;-63
2023/03/16 11:17:26;;;;;;;5.97;3.67;;;7.90;99.90;;;;;;5033934;28;20041;-63
2023/03/16 11:19:53;;;;;;;5.93;4.10;;;9.00;99.90;;;;;;5032640;28;20087;-63
2023/03/16 11:22:24;;;;;;;7.15;4.30;;;9.80;99.90;;;;;;5035269;28;20057;-63
2023/03/16 11:24:52;;;;;;;4.88;3.50;;;9.30;99.90;;;;;;5048348;28;20132;-63
2023/03/16 11:27:28;;;;;;;5.07;3.45;;;8.60;99.90;;;;;;5044102;28;20075;-63
2023/03/16 11:30:18;;;;;;;4.47;3.38;;;10.30;99.90;;;;;;5047274;28;20037;-63
2023/03/16 11:32:49;;;;;;;5.65;3.70;;;10.10;99.90;;;;;;5033594;28;20060;-63
2023/03/16 11:35:39;;;;;;;8.73;3.67;;;10.20;99.90;;;;;;5053032;28;20042;-63
2023/03/16 11:38:10;;;;;;;7.88;3.78;;;9.80;99.90;;;;;;5043266;28;20201;-63
2023/03/16 11:40:55;;;;;;;5.80;3.10;;;10.00;99.90;;;;;;5038473;28;20037;-63
2023/03/16 11:43:45;;;;;;;5.60;3.00;;;9.10;28.20;;;;;;5034055;28;20858;-63
2023/03/16 11:46:28;;;;;;;6.05;3.60;;;9.00;99.90;;;;;;5039315;28;20127;-62
2023/03/16 11:48:58;;;;;;;5.13;3.22;;;9.10;99.90;;;;;;5040598;28;20056;-63
2023/03/16 11:51:54;;;;;;;9.20;3.25;;;9.70;99.90;;;;;;5039472;28;20082;-63
2023/03/16 11:54:38;;;;;;;5.28;3.40;;;9.00;99.90;;;;;;5034796;28;20044;-63
2023/03/16 11:57:32;;;;;;;8.23;4.35;;;9.60;1.00;;;;;;5049930;28;20048;-63
2023/03/16 12:00:13;;;;;;;4.22;3.13;;;9.20;1.00;;;;;;5031921;28;20422;-62
2023/03/16 12:02:55;;;;;;;5.93;3.63;;;9.60;99.90;;;;;;5034835;28;20053;-63
2023/03/16 12:06:00;;;;;;;6.45;3.45;;;9.00;1.00;;;;;;5035901;28;20048;-63
2023/03/16 12:08:54;;;;;;;5.15;3.40;;;10.00;99.90;;;;;;5047131;28;20410;-62
2023/03/16 12:11:29;;;;;;;5.20;3.22;;;9.10;99.90;;;;;;5043771;28;20052;-63
2023/03/16 12:14:27;;;;;;;6.95;3.88;;;10.00;11.20;;;;;;5031524;28;20442;-63
2023/03/16 12:17:04;;;;;;;7.63;3.88;;;9.20;1.00;;;;;;5019199;28;20065;-64
2023/03/16 12:19:57;;;;;;;8.02;4.18;;;9.90;99.90;;;;;;5037269;28;20041;-64
2023/03/16 12:22:36;;;;;;;7.03;4.10;;;10.00;99.90;;;;;;5043625;28;20159;-64
2023/03/16 12:25:03;;;;;;;11.88;4.15;;;9.90;99.90;;;;;;5033556;28;20040;-64
2023/03/16 12:27:33;;;;;;;7.30;3.70;;;9.00;99.90;;;;;;5046009;28;20513;-64
2023/03/16 12:30:19;;;;;;;5.15;3.28;;;9.90;72.10;;;;;;5042654;28;20033;-64
2023/03/16 12:33:04;;;;;;;6.05;3.97;;;9.80;22.80;;;;;;5042697;28;20025;-64
2023/03/16 12:36:08;;;;;;;7.00;4.03;;;10.00;1.00;;;;;;5042472;28;20041;-64
2023/03/16 12:38:58;;;;;;;8.18;4.25;;;9.90;1.00;;;;;;5038545;28;20049;-64
2023/03/16 12:41:56;;;;;;;7.43;3.50;;;9.90;1.00;;;;;;5037885;28;20042;-64
2023/03/16 12:44:31;;;;;;;6.13;3.72;;;9.90;1.00;;;;;;5042597;28;20112;-64
2023/03/16 12:46:58;;;;;;;7.68;4.45;;;10.00;1.00;;;;;;5047242;28;20041;-64
2023/03/16 12:49:25;;;;;;;8.88;4.47;;;10.20;1.00;;;;;;5040335;28;20049;-64
2023/03/16 12:52:00;;;;;;;5.95;3.97;;;9.40;99.90;;;;;;5034415;28;20128;-64
2023/03/16 12:54:26;;;;;;;4.88;3.00;;;9.40;99.90;;;;;;5035100;28;20033;-64
2023/03/16 12:56:59;;;;;;;6.05;4.00;;;10.20;99.90;;;;;;5047357;28;20502;-64
2023/03/16 12:59:41;;;;;;;7.30;3.40;;;9.50;99.90;;;;;;5037062;28;20069;-64
2023/03/16 13:02:25;;;;;;;6.22;3.35;;;9.70;99.90;;;;;;5040968;28;20076;-64
2023/03/16 13:04:59;;;;;;;5.72;3.53;;;10.50;99.90;;;;;;5034854;28;20044;-64
2023/03/16 13:07:28;;;;;;;7.35;3.90;;;10.60;99.90;;;;;;5041549;28;20041;-64
2023/03/16 13:10:07;;;;;;;9.63;4.35;;;10.50;99.90;;;;;;5031332;28;20046;-64
2023/03/16 13:12:36;;;;;;;8.50;4.25;;;10.70;99.90;;;;;;5032351;28;20037;-64